sensor_id;sensor_type;location;lat;lon;timestamp;temperature;humidity
4749;DHT22;2388;53.582;9.962;2022-10-15T00:02:04;14.40;99.90
4749;DHT22;2388;53.582;9.962;2022-10-15T00:04:30;14.50;99.90
4749;DHT22;2388;53.582;9.962;2022-10-15T00:06:56;14.50;99.90
4749;DHT22;2388;53.582;9.962;2022-10-15T00:09:21;14.40;99.90
4749;DHT22;2388;53.582;9.962;2022-10-15T00:11:47;14.50;99.90
4749;DHT22;2388;53.582;9.962;2022-10-15T00:14:12;14.50;99.90
4749;DHT22;2388;53.582;9.962;2022-10-15T00:16:38;14.50;99.90
4749;DHT22;2388;53.582;9.962;2022-10-15T00:19:03;14.50;99.90
4749;DHT22;2388;53.582;9.962;2022-10-15T00:21:29;14.50;99.90
4749;DHT22;2388;53.582;9.962;2022-10-15T00:23:55;14.50;99.90
4749;DHT22;2388;53.582;9.962;2022-10-15T00:26:26;14.40;99.90
4749;DHT22;2388;53.582;9.962;2022-10-15T00:28:55;14.50;99.90
4749;DHT22;2388;53.582;9.962;2022-10-15T00:31:21;14.50;99.90
4749;DHT22;2388;53.582;9.962;2022-10-15T00:33:50;14.50;99.90
4749;DHT22;2388;53.582;9.962;2022-10-15T00:36:21;14.50;99.90
4749;DHT22;2388;53.582;9.962;2022-10-15T00:38:48;14.50;99.90
4749;DHT22;2388;53.582;9.962;2022-10-15T00:41:18;14.50;99.90
4749;DHT22;2388;53.582;9.962;2022-10-15T00:46:30;14.40;99.90
4749;DHT22;2388;53.582;9.962;2022-10-15T00:51:37;14.40;99.90
4749;DHT22;2388;53.582;9.962;2022-10-15T00:54:04;14.40;99.90
4749;DHT22;2388;53.582;9.962;2022-10-15T00:56:31;14.40;99.90
4749;DHT22;2388;53.582;9.962;2022-10-15T00:58:57;14.40;99.90
4749;DHT22;2388;53.582;9.962;2022-10-15T01:01:23;14.40;99.90
4749;DHT22;2388;53.582;9.962;2022-10-15T01:03:50;14.40;99.90
4749;DHT22;2388;53.582;9.962;2022-10-15T01:06:16;14.40;99.90
4749;DHT22;2388;53.582;9.962;2022-10-15T01:08:42;14.40;99.90
4749;DHT22;2388;53.582;9.962;2022-10-15T01:14:07;14.40;99.90
4749;DHT22;2388;53.582;9.962;2022-10-15T01:16:45;14.40;99.90
4749;DHT22;2388;53.582;9.962;2022-10-15T01:19:41;14.40;99.90
4749;DHT22;2388;53.582;9.962;2022-10-15T01:25:27;14.40;99.90
4749;DHT22;2388;53.582;9.962;2022-10-15T01:30:49;14.40;99.90
4749;DHT22;2388;53.582;9.962;2022-10-15T01:36:18;14.40;99.90
4749;DHT22;2388;53.582;9.962;2022-10-15T01:38:55;14.40;99.90
4749;DHT22;2388;53.582;9.962;2022-10-15T01:41:33;14.30;99.90
4749;DHT22;2388;53.582;9.962;2022-10-15T01:44:11;14.30;99.90
4749;DHT22;2388;53.582;9.962;2022-10-15T01:46:54;14.30;99.90
4749;DHT22;2388;53.582;9.962;2022-10-15T01:49:27;14.30;99.90
4749;DHT22;2388;53.582;9.962;2022-10-15T01:51:55;14.30;99.90
4749;DHT22;2388;53.582;9.962;2022-10-15T01:54:24;14.30;99.90
4749;DHT22;2388;53.582;9.962;2022-10-15T01:56:51;14.30;99.90
4749;DHT22;2388;53.582;9.962;2022-10-15T01:59:28;14.20;99.90
4749;DHT22;2388;53.582;9.962;2022-10-15T02:01:54;14.20;99.90
4749;DHT22;2388;53.582;9.962;2022-10-15T02:04:23;14.20;99.90
4749;DHT22;2388;53.582;9.962;2022-10-15T02:07:00;14.20;99.90
4749;DHT22;2388;53.582;9.962;2022-10-15T02:09:30;14.20;99.90
4749;DHT22;2388;53.582;9.962;2022-10-15T02:14:50;14.20;99.90
4749;DHT22;2388;53.582;9.962;2022-10-15T02:17:23;14.20;99.90
4749;DHT22;2388;53.582;9.962;2022-10-15T02:22:38;14.20;99.90
4749;DHT22;2388;53.582;9.962;2022-10-15T02:25:26;14.10;99.90
4749;DHT22;2388;53.582;9.962;2022-10-15T02:27:54;14.10;99.90
4749;DHT22;2388;53.582;9.962;2022-10-15T02:30:20;14.10;99.90
4749;DHT22;2388;53.582;9.962;2022-10-15T02:32:54;14.10;99.90
4749;DHT22;2388;53.582;9.962;2022-10-15T02:35:22;14.20;99.90
4749;DHT22;2388;53.582;9.962;2022-10-15T02:37:50;14.10;99.90
4749;DHT22;2388;53.582;9.962;2022-10-15T02:40:18;14.10;99.90
4749;DHT22;2388;53.582;9.962;2022-10-15T02:42:48;14.10;99.90
4749;DHT22;2388;53.582;9.962;2022-10-15T02:45:15;14.10;99.90
4749;DHT22;2388;53.582;9.962;2022-10-15T02:47:40;14.00;99.90
4749;DHT22;2388;53.582;9.962;2022-10-15T02:50:06;14.00;99.90
4749;DHT22;2388;53.582;9.962;2022-10-15T02:52:31;14.00;99.90
4749;DHT22;2388;53.582;9.962;2022-10-15T02:54:57;13.90;99.90
4749;DHT22;2388;53.582;9.962;2022-10-15T02:57:22;14.00;99.90
4749;DHT22;2388;53.582;9.962;2022-10-15T02:59:48;13.90;99.90
4749;DHT22;2388;53.582;9.962;2022-10-15T03:02:13;13.90;99.90
4749;DHT22;2388;53.582;9.962;2022-10-15T03:04:39;13.90;99.90
4749;DHT22;2388;53.582;9.962;2022-10-15T03:07:04;13.80;99.90
4749;DHT22;2388;53.582;9.962;2022-10-15T03:09:30;13.80;99.90
4749;DHT22;2388;53.582;9.962;2022-10-15T03:11:55;13.80;99.90
4749;DHT22;2388;53.582;9.962;2022-10-15T03:14:21;13.70;99.90
4749;DHT22;2388;53.582;9.962;2022-10-15T03:16:46;13.70;99.90
4749;DHT22;2388;53.582;9.962;2022-10-15T03:19:12;13.70;99.90
4749;DHT22;2388;53.582;9.962;2022-10-15T03:21:37;13.60;99.90
4749;DHT22;2388;53.582;9.962;2022-10-15T03:24:03;13.60;99.90
4749;DHT22;2388;53.582;9.962;2022-10-15T03:26:28;13.60;99.90
4749;DHT22;2388;53.582;9.962;2022-10-15T03:28:54;13.60;99.90
4749;DHT22;2388;53.582;9.962;2022-10-15T03:31:19;13.50;99.90
4749;DHT22;2388;53.582;9.962;2022-10-15T03:33:45;13.60;99.90
4749;DHT22;2388;53.582;9.962;2022-10-15T03:36:10;13.50;99.90
4749;DHT22;2388;53.582;9.962;2022-10-15T03:38:36;13.50;99.90
4749;DHT22;2388;53.582;9.962;2022-10-15T03:41:01;13.50;99.90
4749;DHT22;2388;53.582;9.962;2022-10-15T03:43:27;13.50;99.90
4749;DHT22;2388;53.582;9.962;2022-10-15T03:45:52;13.50;99.90
4749;DHT22;2388;53.582;9.962;2022-10-15T03:48:18;13.40;99.90
4749;DHT22;2388;53.582;9.962;2022-10-15T03:50:44;13.40;99.90
4749;DHT22;2388;53.582;9.962;2022-10-15T03:53:10;13.40;99.90
4749;DHT22;2388;53.582;9.962;2022-10-15T03:55:36;13.40;99.90
4749;DHT22;2388;53.582;9.962;2022-10-15T03:58:01;13.40;99.90
4749;DHT22;2388;53.582;9.962;2022-10-15T04:00:27;13.40;99.90
4749;DHT22;2388;53.582;9.962;2022-10-15T04:02:53;13.40;99.90
4749;DHT22;2388;53.582;9.962;2022-10-15T04:05:19;13.40;99.90
4749;DHT22;2388;53.582;9.962;2022-10-15T04:07:44;13.40;99.90
4749;DHT22;2388;53.582;9.962;2022-10-15T04:10:10;13.40;99.90
4749;DHT22;2388;53.582;9.962;2022-10-15T04:12:35;13.40;99.90
4749;DHT22;2388;53.582;9.962;2022-10-15T04:15:01;13.50;99.90
4749;DHT22;2388;53.582;9.962;2022-10-15T04:17:26;13.50;99.90
4749;DHT22;2388;53.582;9.962;2022-10-15T04:19:52;13.50;99.90
4749;DHT22;2388;53.582;9.962;2022-10-15T04:22:17;13.50;99.90
4749;DHT22;2388;53.582;9.962;2022-10-15T04:24:43;13.50;99.90
4749;DHT22;2388;53.582;9.962;2022-10-15T04:27:10;13.50;99.90
4749;DHT22;2388;53.582;9.962;2022-10-15T04:29:36;13.50;99.90
4749;DHT22;2388;53.582;9.962;2022-10-15T04:32:01;13.50;99.90
4749;DHT22;2388;53.582;9.962;2022-10-15T04:34:27;13.50;99.90
4749;DHT22;2388;53.582;9.962;2022-10-15T04:36:52;13.50;99.90
4749;DHT22;2388;53.582;9.962;2022-10-15T04:39:18;13.40;99.90
4749;DHT22;2388;53.582;9.962;2022-10-15T04:41:43;13.50;99.90
4749;DHT22;2388;53.582;9.962;2022-10-15T04:44:09;13.50;99.90
4749;DHT22;2388;53.582;9.962;2022-10-15T04:46:34;13.50;99.90
4749;DHT22;2388;53.582;9.962;2022-10-15T04:49:00;13.40;99.90
4749;DHT22;2388;53.582;9.962;2022-10-15T04:51:25;13.40;99.90
4749;DHT22;2388;53.582;9.962;2022-10-15T04:53:51;13.40;99.90
4749;DHT22;2388;53.582;9.962;2022-10-15T04:56:19;13.40;99.90
4749;DHT22;2388;53.582;9.962;2022-10-15T04:58:45;13.40;99.90
4749;DHT22;2388;53.582;9.962;2022-10-15T05:01:13;13.40;99.90
4749;DHT22;2388;53.582;9.962;2022-10-15T05:03:42;13.40;99.90
4749;DHT22;2388;53.582;9.962;2022-10-15T05:06:10;13.40;99.90
4749;DHT22;2388;53.582;9.962;2022-10-15T05:08:36;13.40;99.90
4749;DHT22;2388;53.582;9.962;2022-10-15T05:11:07;13.40;99.90
4749;DHT22;2388;53.582;9.962;2022-10-15T05:13:33;13.30;99.90
4749;DHT22;2388;53.582;9.962;2022-10-15T05:16:14;13.30;99.90
4749;DHT22;2388;53.582;9.962;2022-10-15T05:18:41;13.30;99.90
4749;DHT22;2388;53.582;9.962;2022-10-15T05:21:07;13.30;99.90
4749;DHT22;2388;53.582;9.962;2022-10-15T05:23:33;13.20;99.90
4749;DHT22;2388;53.582;9.962;2022-10-15T05:26:03;13.30;99.90
4749;DHT22;2388;53.582;9.962;2022-10-15T05:28:30;13.30;99.90
4749;DHT22;2388;53.582;9.962;2022-10-15T05:31:01;13.20;99.90
4749;DHT22;2388;53.582;9.962;2022-10-15T05:33:27;13.20;99.90
4749;DHT22;2388;53.582;9.962;2022-10-15T05:35:53;13.20;99.90
4749;DHT22;2388;53.582;9.962;2022-10-15T05:38:18;13.20;99.90
4749;DHT22;2388;53.582;9.962;2022-10-15T05:40:47;13.20;99.90
4749;DHT22;2388;53.582;9.962;2022-10-15T05:43:13;13.20;99.90
4749;DHT22;2388;53.582;9.962;2022-10-15T05:45:39;13.20;99.90
4749;DHT22;2388;53.582;9.962;2022-10-15T05:48:04;13.40;99.90
4749;DHT22;2388;53.582;9.962;2022-10-15T05:50:30;13.50;99.90
4749;DHT22;2388;53.582;9.962;2022-10-15T05:52:56;13.40;99.90
4749;DHT22;2388;53.582;9.962;2022-10-15T05:55:21;13.40;99.90
4749;DHT22;2388;53.582;9.962;2022-10-15T05:57:47;13.30;99.90
4749;DHT22;2388;53.582;9.962;2022-10-15T06:00:13;13.30;99.90
4749;DHT22;2388;53.582;9.962;2022-10-15T06:02:39;13.30;99.90
4749;DHT22;2388;53.582;9.962;2022-10-15T06:05:04;13.30;99.90
4749;DHT22;2388;53.582;9.962;2022-10-15T06:07:30;13.20;99.90
4749;DHT22;2388;53.582;9.962;2022-10-15T06:09:56;13.20;99.90
4749;DHT22;2388;53.582;9.962;2022-10-15T06:12:22;13.20;99.90
4749;DHT22;2388;53.582;9.962;2022-10-15T06:14:47;13.20;99.90
4749;DHT22;2388;53.582;9.962;2022-10-15T06:17:13;13.20;99.90
4749;DHT22;2388;53.582;9.962;2022-10-15T06:19:38;13.20;99.90
4749;DHT22;2388;53.582;9.962;2022-10-15T06:22:04;13.20;99.90
4749;DHT22;2388;53.582;9.962;2022-10-15T06:24:29;13.20;99.90
4749;DHT22;2388;53.582;9.962;2022-10-15T06:26:56;13.20;99.90
4749;DHT22;2388;53.582;9.962;2022-10-15T06:29:22;13.20;99.90
4749;DHT22;2388;53.582;9.962;2022-10-15T06:31:47;13.20;99.90
4749;DHT22;2388;53.582;9.962;2022-10-15T06:34:13;13.20;99.90
4749;DHT22;2388;53.582;9.962;2022-10-15T06:36:38;13.20;99.90
4749;DHT22;2388;53.582;9.962;2022-10-15T06:39:04;13.20;99.90
4749;DHT22;2388;53.582;9.962;2022-10-15T06:41:29;13.20;99.90
4749;DHT22;2388;53.582;9.962;2022-10-15T06:43:55;13.20;99.90
4749;DHT22;2388;53.582;9.962;2022-10-15T06:46:20;13.20;99.90
4749;DHT22;2388;53.582;9.962;2022-10-15T06:48:46;13.20;99.90
4749;DHT22;2388;53.582;9.962;2022-10-15T06:51:11;13.20;99.90
4749;DHT22;2388;53.582;9.962;2022-10-15T06:53:38;13.30;99.90
4749;DHT22;2388;53.582;9.962;2022-10-15T06:56:06;13.50;99.90
4749;DHT22;2388;53.582;9.962;2022-10-15T06:58:32;13.60;99.90
4749;DHT22;2388;53.582;9.962;2022-10-15T07:01:01;13.70;99.90
4749;DHT22;2388;53.582;9.962;2022-10-15T07:03:28;13.70;99.90
4749;DHT22;2388;53.582;9.962;2022-10-15T07:05:54;13.80;99.90
4749;DHT22;2388;53.582;9.962;2022-10-15T07:08:19;13.90;99.90
4749;DHT22;2388;53.582;9.962;2022-10-15T07:10:45;13.90;99.90
4749;DHT22;2388;53.582;9.962;2022-10-15T07:13:11;13.90;99.90
4749;DHT22;2388;53.582;9.962;2022-10-15T07:15:36;13.90;99.90
4749;DHT22;2388;53.582;9.962;2022-10-15T07:18:02;13.80;99.90
4749;DHT22;2388;53.582;9.962;2022-10-15T07:20:29;13.90;99.90
4749;DHT22;2388;53.582;9.962;2022-10-15T07:22:58;14.00;99.90
4749;DHT22;2388;53.582;9.962;2022-10-15T07:25:25;14.00;99.90
4749;DHT22;2388;53.582;9.962;2022-10-15T07:27:51;13.90;99.90
4749;DHT22;2388;53.582;9.962;2022-10-15T07:30:16;13.90;99.90
4749;DHT22;2388;53.582;9.962;2022-10-15T07:32:42;13.90;99.90
4749;DHT22;2388;53.582;9.962;2022-10-15T07:35:08;14.00;99.90
4749;DHT22;2388;53.582;9.962;2022-10-15T07:37:33;14.00;99.90
4749;DHT22;2388;53.582;9.962;2022-10-15T07:39:59;14.10;99.90
4749;DHT22;2388;53.582;9.962;2022-10-15T07:42:25;14.10;99.90
4749;DHT22;2388;53.582;9.962;2022-10-15T07:44:50;13.90;99.90
4749;DHT22;2388;53.582;9.962;2022-10-15T07:47:16;14.00;99.90
4749;DHT22;2388;53.582;9.962;2022-10-15T07:49:41;13.90;99.90
4749;DHT22;2388;53.582;9.962;2022-10-15T07:52:07;13.80;99.90
4749;DHT22;2388;53.582;9.962;2022-10-15T07:54:35;13.70;99.90
4749;DHT22;2388;53.582;9.962;2022-10-15T07:57:01;13.70;99.90
4749;DHT22;2388;53.582;9.962;2022-10-15T07:59:27;13.70;99.90
4749;DHT22;2388;53.582;9.962;2022-10-15T08:01:52;13.70;99.90
4749;DHT22;2388;53.582;9.962;2022-10-15T08:04:17;13.70;99.90
4749;DHT22;2388;53.582;9.962;2022-10-15T08:06:45;13.70;99.90
4749;DHT22;2388;53.582;9.962;2022-10-15T08:09:10;13.60;99.90
4749;DHT22;2388;53.582;9.962;2022-10-15T08:11:36;13.60;99.90
4749;DHT22;2388;53.582;9.962;2022-10-15T08:14:01;13.60;99.90
4749;DHT22;2388;53.582;9.962;2022-10-15T08:16:28;13.60;99.90
4749;DHT22;2388;53.582;9.962;2022-10-15T08:18:53;13.60;99.90
4749;DHT22;2388;53.582;9.962;2022-10-15T08:21:19;13.70;99.90
4749;DHT22;2388;53.582;9.962;2022-10-15T08:23:44;13.70;99.90
4749;DHT22;2388;53.582;9.962;2022-10-15T08:26:10;13.70;99.90
4749;DHT22;2388;53.582;9.962;2022-10-15T08:28:36;13.70;99.90
4749;DHT22;2388;53.582;9.962;2022-10-15T08:31:02;13.80;99.90
4749;DHT22;2388;53.582;9.962;2022-10-15T08:33:28;13.80;99.90
4749;DHT22;2388;53.582;9.962;2022-10-15T08:35:54;13.80;99.90
4749;DHT22;2388;53.582;9.962;2022-10-15T08:38:20;13.80;99.90
4749;DHT22;2388;53.582;9.962;2022-10-15T08:40:51;13.90;99.90
4749;DHT22;2388;53.582;9.962;2022-10-15T08:43:22;14.00;99.90
4749;DHT22;2388;53.582;9.962;2022-10-15T08:45:50;14.10;99.90
4749;DHT22;2388;53.582;9.962;2022-10-15T08:48:32;14.20;99.90
4749;DHT22;2388;53.582;9.962;2022-10-15T08:51:20;14.30;99.90
4749;DHT22;2388;53.582;9.962;2022-10-15T08:53:52;14.40;99.90
4749;DHT22;2388;53.582;9.962;2022-10-15T08:56:21;14.40;99.90
4749;DHT22;2388;53.582;9.962;2022-10-15T09:07:38;14.60;99.90
4749;DHT22;2388;53.582;9.962;2022-10-15T09:15:47;14.70;99.90
4749;DHT22;2388;53.582;9.962;2022-10-15T09:18:21;14.80;99.90
4749;DHT22;2388;53.582;9.962;2022-10-15T09:20:48;14.80;99.90
4749;DHT22;2388;53.582;9.962;2022-10-15T09:23:23;14.90;99.90
4749;DHT22;2388;53.582;9.962;2022-10-15T09:29:11;15.00;99.90
4749;DHT22;2388;53.582;9.962;2022-10-15T09:31:49;15.00;99.90
4749;DHT22;2388;53.582;9.962;2022-10-15T09:34:24;15.10;99.90
4749;DHT22;2388;53.582;9.962;2022-10-15T09:37:49;15.20;99.90
4749;DHT22;2388;53.582;9.962;2022-10-15T09:42:59;15.30;99.90
4749;DHT22;2388;53.582;9.962;2022-10-15T09:45:25;15.20;99.90
4749;DHT22;2388;53.582;9.962;2022-10-15T09:47:56;15.20;99.90
4749;DHT22;2388;53.582;9.962;2022-10-15T09:50:33;15.20;99.90
4749;DHT22;2388;53.582;9.962;2022-10-15T09:53:55;15.30;99.90
4749;DHT22;2388;53.582;9.962;2022-10-15T09:56:37;15.20;99.90
4749;DHT22;2388;53.582;9.962;2022-10-15T09:59:03;15.20;99.90
4749;DHT22;2388;53.582;9.962;2022-10-15T10:01:31;15.20;99.90
4749;DHT22;2388;53.582;9.962;2022-10-15T10:04:10;15.30;99.90
4749;DHT22;2388;53.582;9.962;2022-10-15T10:06:45;15.30;99.90
4749;DHT22;2388;53.582;9.962;2022-10-15T10:09:22;15.40;99.90
4749;DHT22;2388;53.582;9.962;2022-10-15T10:11:58;15.50;99.90
4749;DHT22;2388;53.582;9.962;2022-10-15T10:14:31;15.60;99.90
4749;DHT22;2388;53.582;9.962;2022-10-15T10:17:13;15.60;99.90
4749;DHT22;2388;53.582;9.962;2022-10-15T10:19:43;15.70;99.90
4749;DHT22;2388;53.582;9.962;2022-10-15T10:22:19;15.70;99.90
4749;DHT22;2388;53.582;9.962;2022-10-15T10:24:46;15.80;99.90
4749;DHT22;2388;53.582;9.962;2022-10-15T10:27:24;15.90;99.90
4749;DHT22;2388;53.582;9.962;2022-10-15T10:30:02;15.90;99.90
4749;DHT22;2388;53.582;9.962;2022-10-15T10:32:30;16.10;99.90
4749;DHT22;2388;53.582;9.962;2022-10-15T10:34:58;16.10;99.90
4749;DHT22;2388;53.582;9.962;2022-10-15T10:37:24;16.20;99.90
4749;DHT22;2388;53.582;9.962;2022-10-15T10:39:58;16.20;99.90
4749;DHT22;2388;53.582;9.962;2022-10-15T10:42:32;16.30;99.90
4749;DHT22;2388;53.582;9.962;2022-10-15T10:45:21;16.50;99.90
4749;DHT22;2388;53.582;9.962;2022-10-15T10:47:47;16.50;99.90
4749;DHT22;2388;53.582;9.962;2022-10-15T10:50:31;16.50;99.90
4749;DHT22;2388;53.582;9.962;2022-10-15T10:53:22;16.50;99.90
4749;DHT22;2388;53.582;9.962;2022-10-15T10:55:51;16.50;99.90
4749;DHT22;2388;53.582;9.962;2022-10-15T10:58:19;16.50;99.90
4749;DHT22;2388;53.582;9.962;2022-10-15T11:00:51;16.40;99.90
4749;DHT22;2388;53.582;9.962;2022-10-15T11:03:33;16.40;99.90
4749;DHT22;2388;53.582;9.962;2022-10-15T11:08:59;16.40;99.90
4749;DHT22;2388;53.582;9.962;2022-10-15T11:11:28;16.40;99.90
4749;DHT22;2388;53.582;9.962;2022-10-15T11:14:10;16.40;99.90
4749;DHT22;2388;53.582;9.962;2022-10-15T11:17:09;16.50;99.90
4749;DHT22;2388;53.582;9.962;2022-10-15T11:19:44;16.50;99.90
4749;DHT22;2388;53.582;9.962;2022-10-15T11:25:37;16.60;99.90
4749;DHT22;2388;53.582;9.962;2022-10-15T11:39:10;16.60;99.90
4749;DHT22;2388;53.582;9.962;2022-10-15T11:44:29;16.80;99.90
4749;DHT22;2388;53.582;9.962;2022-10-15T11:52:14;17.30;99.90
4749;DHT22;2388;53.582;9.962;2022-10-15T11:57:26;17.70;99.90
4749;DHT22;2388;53.582;9.962;2022-10-15T11:59:55;17.80;99.90
4749;DHT22;2388;53.582;9.962;2022-10-15T12:02:33;17.80;99.90
4749;DHT22;2388;53.582;9.962;2022-10-15T12:05:16;18.00;99.90
4749;DHT22;2388;53.582;9.962;2022-10-15T12:07:44;17.90;99.90
4749;DHT22;2388;53.582;9.962;2022-10-15T12:12:56;17.70;99.90
4749;DHT22;2388;53.582;9.962;2022-10-15T12:18:25;17.40;99.90
4749;DHT22;2388;53.582;9.962;2022-10-15T12:20:52;17.30;99.90
4749;DHT22;2388;53.582;9.962;2022-10-15T12:23:39;17.40;99.90
4749;DHT22;2388;53.582;9.962;2022-10-15T12:28:55;17.90;99.90
4749;DHT22;2388;53.582;9.962;2022-10-15T12:31:21;17.90;99.90
4749;DHT22;2388;53.582;9.962;2022-10-15T12:33:51;18.10;99.90
4749;DHT22;2388;53.582;9.962;2022-10-15T12:41:34;18.40;99.90
4749;DHT22;2388;53.582;9.962;2022-10-15T12:44:22;18.40;99.90
4749;DHT22;2388;53.582;9.962;2022-10-15T12:46:49;18.40;99.90
4749;DHT22;2388;53.582;9.962;2022-10-15T12:51:57;18.20;99.90
4749;DHT22;2388;53.582;9.962;2022-10-15T12:54:41;18.00;99.90
4749;DHT22;2388;53.582;9.962;2022-10-15T13:00:00;17.70;99.90
4749;DHT22;2388;53.582;9.962;2022-10-15T13:02:52;17.50;99.90
4749;DHT22;2388;53.582;9.962;2022-10-15T13:05:30;17.40;99.90
4749;DHT22;2388;53.582;9.962;2022-10-15T13:07:58;17.40;99.90
4749;DHT22;2388;53.582;9.962;2022-10-15T13:12:56;17.30;99.90
4749;DHT22;2388;53.582;9.962;2022-10-15T13:15:25;17.30;99.90
4749;DHT22;2388;53.582;9.962;2022-10-15T13:17:54;17.30;99.90
4749;DHT22;2388;53.582;9.962;2022-10-15T13:20:37;17.30;99.90
4749;DHT22;2388;53.582;9.962;2022-10-15T13:23:19;17.40;99.90
4749;DHT22;2388;53.582;9.962;2022-10-15T13:25:46;17.40;99.90
4749;DHT22;2388;53.582;9.962;2022-10-15T13:28:32;17.30;99.90
4749;DHT22;2388;53.582;9.962;2022-10-15T13:31:01;17.40;99.90
4749;DHT22;2388;53.582;9.962;2022-10-15T13:33:29;17.30;99.90
4749;DHT22;2388;53.582;9.962;2022-10-15T13:35:55;17.20;99.90
4749;DHT22;2388;53.582;9.962;2022-10-15T13:38:22;17.20;99.90
4749;DHT22;2388;53.582;9.962;2022-10-15T13:40:50;17.20;99.90
4749;DHT22;2388;53.582;9.962;2022-10-15T13:43:22;17.10;99.90
4749;DHT22;2388;53.582;9.962;2022-10-15T13:45:58;17.10;99.90
4749;DHT22;2388;53.582;9.962;2022-10-15T13:48:27;17.10;99.90
4749;DHT22;2388;53.582;9.962;2022-10-15T13:50:55;17.10;99.90
4749;DHT22;2388;53.582;9.962;2022-10-15T13:55:56;17.10;99.90
4749;DHT22;2388;53.582;9.962;2022-10-15T13:58:33;17.10;99.90
4749;DHT22;2388;53.582;9.962;2022-10-15T14:01:09;17.20;99.90
4749;DHT22;2388;53.582;9.962;2022-10-15T14:03:51;17.30;99.90
4749;DHT22;2388;53.582;9.962;2022-10-15T14:06:25;17.30;99.90
4749;DHT22;2388;53.582;9.962;2022-10-15T14:08:57;17.20;99.90
4749;DHT22;2388;53.582;9.962;2022-10-15T14:11:23;17.20;99.90
4749;DHT22;2388;53.582;9.962;2022-10-15T14:13:57;17.20;99.90
4749;DHT22;2388;53.582;9.962;2022-10-15T14:16:39;17.10;99.90
4749;DHT22;2388;53.582;9.962;2022-10-15T14:21:32;17.10;99.90
4749;DHT22;2388;53.582;9.962;2022-10-15T14:26:47;17.20;99.90
4749;DHT22;2388;53.582;9.962;2022-10-15T14:29:27;17.20;99.90
4749;DHT22;2388;53.582;9.962;2022-10-15T14:31:53;17.20;99.90
4749;DHT22;2388;53.582;9.962;2022-10-15T14:34:34;17.10;99.90
4749;DHT22;2388;53.582;9.962;2022-10-15T14:40:17;17.00;99.90
4749;DHT22;2388;53.582;9.962;2022-10-15T14:43:05;17.00;99.90
4749;DHT22;2388;53.582;9.962;2022-10-15T14:48:24;17.00;99.90
4749;DHT22;2388;53.582;9.962;2022-10-15T14:50:51;17.00;99.90
4749;DHT22;2388;53.582;9.962;2022-10-15T14:53:19;17.00;99.90
4749;DHT22;2388;53.582;9.962;2022-10-15T14:55:49;17.00;99.90
4749;DHT22;2388;53.582;9.962;2022-10-15T14:58:19;17.00;99.90
4749;DHT22;2388;53.582;9.962;2022-10-15T15:00:47;17.00;99.90
4749;DHT22;2388;53.582;9.962;2022-10-15T15:03:18;17.00;99.90
4749;DHT22;2388;53.582;9.962;2022-10-15T15:05:51;17.00;99.90
4749;DHT22;2388;53.582;9.962;2022-10-15T15:08:18;16.90;99.90
4749;DHT22;2388;53.582;9.962;2022-10-15T15:10:45;17.00;99.90
4749;DHT22;2388;53.582;9.962;2022-10-15T15:13:14;16.90;99.90
4749;DHT22;2388;53.582;9.962;2022-10-15T15:15:43;16.90;99.90
4749;DHT22;2388;53.582;9.962;2022-10-15T15:18:12;17.00;99.90
4749;DHT22;2388;53.582;9.962;2022-10-15T15:20:39;16.90;99.90
4749;DHT22;2388;53.582;9.962;2022-10-15T15:23:05;16.90;99.90
4749;DHT22;2388;53.582;9.962;2022-10-15T15:25:34;16.90;99.90
4749;DHT22;2388;53.582;9.962;2022-10-15T15:28:01;16.90;99.90
4749;DHT22;2388;53.582;9.962;2022-10-15T15:30:29;16.90;99.90
4749;DHT22;2388;53.582;9.962;2022-10-15T15:32:55;16.90;99.90
4749;DHT22;2388;53.582;9.962;2022-10-15T15:35:41;16.90;99.90
4749;DHT22;2388;53.582;9.962;2022-10-15T15:38:15;16.80;99.90
4749;DHT22;2388;53.582;9.962;2022-10-15T15:40:40;16.80;99.90
4749;DHT22;2388;53.582;9.962;2022-10-15T15:43:07;16.80;99.90
4749;DHT22;2388;53.582;9.962;2022-10-15T15:45:32;16.80;99.90
4749;DHT22;2388;53.582;9.962;2022-10-15T15:47:58;16.80;99.90
4749;DHT22;2388;53.582;9.962;2022-10-15T15:50:27;16.80;99.90
4749;DHT22;2388;53.582;9.962;2022-10-15T15:52:53;16.80;99.90
4749;DHT22;2388;53.582;9.962;2022-10-15T15:55:18;16.70;99.90
4749;DHT22;2388;53.582;9.962;2022-10-15T15:57:44;16.70;99.90
4749;DHT22;2388;53.582;9.962;2022-10-15T16:00:10;16.60;99.90
4749;DHT22;2388;53.582;9.962;2022-10-15T16:02:37;16.50;99.90
4749;DHT22;2388;53.582;9.962;2022-10-15T16:05:05;16.50;99.90
4749;DHT22;2388;53.582;9.962;2022-10-15T16:07:31;16.50;99.90
4749;DHT22;2388;53.582;9.962;2022-10-15T16:09:56;16.40;99.90
4749;DHT22;2388;53.582;9.962;2022-10-15T16:12:22;16.40;99.90
4749;DHT22;2388;53.582;9.962;2022-10-15T16:14:48;16.30;99.90
4749;DHT22;2388;53.582;9.962;2022-10-15T16:17:13;16.30;99.90
4749;DHT22;2388;53.582;9.962;2022-10-15T16:19:39;16.30;99.90
4749;DHT22;2388;53.582;9.962;2022-10-15T16:22:04;16.30;99.90
4749;DHT22;2388;53.582;9.962;2022-10-15T16:24:30;16.30;99.90
4749;DHT22;2388;53.582;9.962;2022-10-15T16:26:55;16.30;99.90
4749;DHT22;2388;53.582;9.962;2022-10-15T16:29:21;16.20;99.90
4749;DHT22;2388;53.582;9.962;2022-10-15T16:31:46;16.20;99.90
4749;DHT22;2388;53.582;9.962;2022-10-15T16:34:12;16.20;99.90
4749;DHT22;2388;53.582;9.962;2022-10-15T16:36:37;16.20;99.90
4749;DHT22;2388;53.582;9.962;2022-10-15T16:39:03;16.20;99.90
4749;DHT22;2388;53.582;9.962;2022-10-15T16:41:29;16.20;99.90
4749;DHT22;2388;53.582;9.962;2022-10-15T16:43:54;16.20;99.90
4749;DHT22;2388;53.582;9.962;2022-10-15T16:46:20;16.20;99.90
4749;DHT22;2388;53.582;9.962;2022-10-15T16:48:54;16.20;99.90
4749;DHT22;2388;53.582;9.962;2022-10-15T16:51:20;16.20;99.90
4749;DHT22;2388;53.582;9.962;2022-10-15T16:53:47;16.10;99.90
4749;DHT22;2388;53.582;9.962;2022-10-15T16:56:21;16.10;99.90
4749;DHT22;2388;53.582;9.962;2022-10-15T16:58:47;16.10;99.90
4749;DHT22;2388;53.582;9.962;2022-10-15T17:01:18;16.10;99.90
4749;DHT22;2388;53.582;9.962;2022-10-15T17:03:44;16.10;99.90
4749;DHT22;2388;53.582;9.962;2022-10-15T17:06:12;16.10;99.90
4749;DHT22;2388;53.582;9.962;2022-10-15T17:08:44;16.10;99.90
4749;DHT22;2388;53.582;9.962;2022-10-15T17:11:12;16.00;99.90
4749;DHT22;2388;53.582;9.962;2022-10-15T17:13:39;16.00;99.90
4749;DHT22;2388;53.582;9.962;2022-10-15T17:16:25;16.00;99.90
4749;DHT22;2388;53.582;9.962;2022-10-15T17:18:52;16.00;99.90
4749;DHT22;2388;53.582;9.962;2022-10-15T17:21:20;16.00;99.90
4749;DHT22;2388;53.582;9.962;2022-10-15T17:23:47;16.00;99.90
4749;DHT22;2388;53.582;9.962;2022-10-15T17:26:18;16.00;99.90
4749;DHT22;2388;53.582;9.962;2022-10-15T17:28:45;15.90;99.90
4749;DHT22;2388;53.582;9.962;2022-10-15T17:31:14;15.90;99.90
4749;DHT22;2388;53.582;9.962;2022-10-15T17:33:40;16.00;99.90
4749;DHT22;2388;53.582;9.962;2022-10-15T17:36:08;16.10;99.90
4749;DHT22;2388;53.582;9.962;2022-10-15T17:38:34;16.10;99.90
4749;DHT22;2388;53.582;9.962;2022-10-15T17:41:05;16.00;99.90
4749;DHT22;2388;53.582;9.962;2022-10-15T17:43:31;15.90;99.90
4749;DHT22;2388;53.582;9.962;2022-10-15T17:45:58;15.90;99.90
4749;DHT22;2388;53.582;9.962;2022-10-15T17:48:24;15.80;99.90
4749;DHT22;2388;53.582;9.962;2022-10-15T17:50:50;15.80;99.90
4749;DHT22;2388;53.582;9.962;2022-10-15T17:53:16;15.80;99.90
4749;DHT22;2388;53.582;9.962;2022-10-15T17:55:41;15.80;99.90
4749;DHT22;2388;53.582;9.962;2022-10-15T17:58:07;15.70;99.90
4749;DHT22;2388;53.582;9.962;2022-10-15T18:00:32;15.70;99.90
4749;DHT22;2388;53.582;9.962;2022-10-15T18:02:58;15.70;99.90